| time (UTC) | temp C | wind direction | speed KPH | gust KPH | rain 1hr cm | rain 24hr cm | rain mn cm | humidity % | barometer mb |
| 20260906093045 | 21 | 355 | 3.2 | 6.4 | 0.00 | 0.00 | 0.00 | 36 | 1010.9 |
| 20260906091531 | 21 | 355 | 1.6 | 9.7 | 0.00 | 0.00 | 0.00 | 36 | 1010.8 |
| 20260906090030 | 21 | 355 | 4.8 | 9.7 | 0.00 | 0.00 | 0.00 | 34 | 1010.9 |
| 20260906084530 | 21 | 355 | 4.8 | 8.0 | 0.00 | 0.00 | 0.00 | 34 | 1010.8 |
| 20260906083028 | 21 | 348 | 6.4 | 8.0 | 0.00 | 0.00 | 0.00 | 34 | 1010.9 |
| 20260906081544 | 21 | 314 | 6.4 | 8.0 | 0.00 | 0.00 | 0.00 | 32 | 1010.9 |
| 20260906080027 | 21 | 336 | 3.2 | 8.0 | 0.00 | 0.00 | 0.00 | 31 | 1010.7 |
| 20260906074527 | 21 | 333 | 4.8 | 8.0 | 0.00 | 0.00 | 0.00 | 32 | 1010.6 |
| 20260906073044 | 20 | 311 | 4.8 | 8.0 | 0.00 | 0.00 | 0.00 | 35 | 1010.7 |
| 20260906071524 | 21 | 311 | 3.2 | 4.8 | 0.00 | 0.00 | 0.00 | 35 | 1010.7 |
| 20260906070035 | 21 | 311 | 4.8 | 8.0 | 0.00 | 0.00 | 0.00 | 35 | 1010.7 |
| 20260906064522 | 21 | 310 | 3.2 | 8.0 | 0.00 | 0.00 | 0.00 | 35 | 1010.8 |
| 20260906063022 | 21 | 309 | 3.2 | 8.0 | 0.00 | 0.00 | 0.00 | 36 | 1010.9 |
| 20260906061519 | 21 | 302 | 4.8 | 8.0 | 0.00 | 0.00 | 0.00 | 37 | 1011.1 |
| 20260906060017 | 21 | 319 | 4.8 | 8.0 | 0.00 | 0.00 | 0.00 | 37 | 1011.3 |
| 20260906054520 | 21 | 317 | 4.8 | 8.0 | 0.00 | 0.00 | 0.00 | 38 | 1011.6 |
| 20260906053012 | 21 | 314 | 6.4 | 8.0 | 0.00 | 0.00 | 0.00 | 37 | 1011.9 |
| 20260906051519 | 21 | 327 | 1.6 | 6.4 | 0.00 | 0.00 | 0.00 | 37 | 1012.2 |
| 20260906050011 | 21 | 329 | 4.8 | 6.4 | 0.00 | 0.00 | 0.00 | 37 | 1012.1 |
| 20260906044512 | 21 | 329 | 4.8 | 6.4 | 0.00 | 0.00 | 0.00 | 37 | 1012.0 |
| 20260906043009 | 21 | 345 | 1.6 | 9.7 | 0.00 | 0.00 | 0.00 | 38 | 1011.9 |
| 20260906041507 | 21 | 10 | 6.4 | 9.7 | 0.00 | 0.00 | 0.00 | 37 | 1011.8 |
| 20260906040004 | 21 | 284 | 4.8 | 6.4 | 0.00 | 0.00 | 0.00 | 31 | 1011.9 |
| 20260906034503 | 21 | 298 | 4.8 | 8.0 | 0.00 | 0.00 | 0.00 | 31 | 1012.2 |
| 20260906033004 | 21 | 122 | 4.8 | 9.7 | 0.00 | 0.00 | 0.00 | 34 | 1012.4 |
| 20260906031501 | 21 | 299 | 6.4 | 8.0 | 0.00 | 0.00 | 0.00 | 44 | 1011.9 |
| 20260906030002 | 21 | 346 | 3.2 | 8.0 | 0.00 | 0.00 | 0.00 | 46 | 1011.7 |
| 20260906024600 | 21 | 313 | 4.8 | 8.0 | 0.00 | 0.00 | 0.00 | 47 | 1011.5 |
| 20260906023128 | 22 | 355 | 6.4 | 8.0 | 0.00 | 0.00 | 0.00 | 46 | 1011.8 |
| 20260906021600 | 21 | 272 | 4.8 | 12.9 | 0.00 | 0.00 | 0.00 | 54 | 1011.9 |
| 20260906020059 | 22 | 336 | 3.2 | 6.4 | 0.00 | 0.00 | 0.00 | 55 | 1011.8 |
| 20260906014626 | 22 | 336 | 1.6 | 4.8 | 0.00 | 0.00 | 0.00 | 57 | 1011.9 |
| 20260906013100 | 22 | 336 | 0.0 | 4.8 | 0.00 | 0.00 | 0.00 | 57 | 1011.6 |
| 20260906011559 | 22 | 333 | 3.2 | 8.0 | 0.00 | 0.00 | 0.00 | 57 | 1011.4 |
| 20260906010057 | 22 | 333 | 3.2 | 8.0 | 0.00 | 0.00 | 0.00 | 58 | 1011.0 |
| 20260906004608 | 22 | 355 | 3.2 | 6.4 | 0.00 | 0.00 | 0.00 | 58 | 1011.0 |
| 20260906003057 | 23 | 355 | 3.2 | 8.0 | 0.00 | 0.00 | 0.00 | 58 | 1010.8 |
| 20260906001554 | 23 | 355 | 3.2 | 6.4 | 0.00 | 0.00 | 0.00 | 59 | 1010.5 |
| 20260906000106 | 23 | 355 | 4.8 | 8.0 | 0.00 | 0.00 | 0.00 | 63 | 1010.7 |
| 20260905234600 | 24 | 238 | 1.6 | 4.8 | 0.00 | 0.00 | 0.00 | 63 | 1010.9 |
| 20260905233056 | 24 | 333 | 1.6 | 4.8 | 0.00 | 0.00 | 0.00 | 63 | 1010.8 |
| 20260905231555 | 24 | 334 | 4.8 | 8.0 | 0.00 | 0.00 | 0.00 | 62 | 1010.9 |
| 20260905230055 | 25 | 344 | 1.6 | 6.4 | 0.00 | 0.00 | 0.00 | 62 | 1010.6 |
| 20260905224603 | 25 | 344 | 4.8 | 8.0 | 0.00 | 0.00 | 0.00 | 61 | 1010.5 |
| 20260905223053 | 25 | 344 | 0.0 | 4.8 | 0.00 | 0.00 | 0.00 | 62 | 1010.6 |
| 20260905221550 | 24 | 12 | 4.8 | 9.7 | 0.00 | 0.00 | 0.00 | 62 | 1010.4 |
| 20260905220049 | 24 | 39 | 6.4 | 14.5 | 0.00 | 0.00 | 0.00 | 62 | 1011.1 |
| 20260905214548 | 25 | 80 | 4.8 | 16.1 | 0.00 | 0.00 | 0.00 | 61 | 1011.0 |
| 20260905213048 | 25 | 47 | 4.8 | 8.0 | 0.00 | 0.00 | 0.00 | 59 | 1010.8 |
| 20260905211547 | 25 | 25 | 3.2 | 9.7 | 0.00 | 0.00 | 0.00 | 59 | 1010.7 |
| 20260905210045 | 26 | 306 | 6.4 | 9.7 | 0.00 | 0.00 | 0.00 | 56 | 1010.8 |
| 20260905204545 | 26 | 286 | 0.0 | 6.4 | 0.00 | 0.00 | 0.00 | 56 | 1011.3 |
| 20260905203044 | 26 | 344 | 4.8 | 17.7 | 0.00 | 0.00 | 0.00 | 54 | 1011.3 |
| 20260905201644 | 27 | 332 | 9.7 | 19.3 | 0.00 | 0.00 | 0.00 | 51 | 1011.5 |
| 20260905200050 | 26 | 25 | 20.9 | 35.4 | 0.00 | 0.00 | 0.00 | 55 | 1011.1 |
| 20260905194541 | 25 | 355 | 22.5 | 35.4 | 0.00 | 0.00 | 0.00 | 54 | 1012.0 |
| 20260905193042 | 27 | 30 | 25.7 | 37.0 | 0.00 | 0.00 | 0.00 | 54 | 1012.0 |
| 20260905191541 | 28 | 32 | 16.1 | 33.8 | 0.00 | 0.00 | 0.00 | 53 | 1011.9 |
| 20260905190049 | 31 | 340 | 3.2 | 6.4 | 0.00 | 0.00 | 0.00 | 46 | 1011.5 |
| 20260905184552 | 31 | 340 | 0.0 | 4.8 | 0.00 | 0.00 | 0.00 | 44 | 1011.2 |
| 20260905183045 | 32 | 340 | 0.0 | 9.7 | 0.00 | 0.00 | 0.00 | 41 | 1011.2 |
| 20260905181537 | 32 | 88 | 0.0 | 14.5 | 0.00 | 0.00 | 0.00 | 37 | 1011.4 |
| 20260905180034 | 33 | 98 | 3.2 | 11.3 | 0.00 | 0.00 | 0.00 | 43 | 1011.6 |
| 20260905174532 | 32 | 105 | 3.2 | 12.9 | 0.00 | 0.00 | 0.00 | 42 | 1011.8 |
| 20260905173031 | 32 | 101 | 6.4 | 11.3 | 0.00 | 0.00 | 0.00 | 43 | 1011.9 |
| 20260905171531 | 32 | 67 | 3.2 | 8.0 | 0.00 | 0.00 | 0.00 | 48 | 1011.9 |
| 20260905170026 | 32 | 98 | 4.8 | 11.3 | 0.00 | 0.00 | 0.00 | 49 | 1011.9 |
| 20260905164529 | 32 | 239 | 0.0 | 12.9 | 0.00 | 0.00 | 0.00 | 49 | 1012.3 |
| 20260905163019 | 31 | 346 | 1.6 | 12.9 | 0.00 | 0.00 | 0.00 | 46 | 1012.7 |
| 20260905161516 | 31 | 265 | 4.8 | 11.3 | 0.00 | 0.00 | 0.00 | 46 | 1012.7 |
| 20260905160015 | 31 | 269 | 1.6 | 8.0 | 0.00 | 0.00 | 0.00 | 48 | 1012.7 |
| 20260905154513 | 31 | 309 | 1.6 | 8.0 | 0.00 | 0.00 | 0.00 | 49 | 1012.9 |
| 20260905153012 | 30 | 262 | 3.2 | 4.8 | 0.00 | 0.00 | 0.00 | 50 | 1013.0 |
| 20260905151506 | 29 | 316 | 1.6 | 9.7 | 0.00 | 0.00 | 0.00 | 52 | 1013.1 |
| 20260905150003 | 28 | 9 | 4.8 | 8.0 | 0.00 | 0.00 | 0.00 | 56 | 1013.0 |
| 20260905144601 | 28 | 308 | 6.4 | 12.9 | 0.00 | 0.00 | 0.00 | 55 | 1013.0 |
| 20260905143056 | 27 | 304 | 6.4 | 12.9 | 0.00 | 0.00 | 0.00 | 56 | 1013.0 |
| 20260905141557 | 27 | 301 | 4.8 | 12.9 | 0.00 | 0.00 | 0.00 | 57 | 1013.3 |
| 20260905140057 | 26 | 306 | 6.4 | 16.1 | 0.00 | 0.00 | 0.00 | 57 | 1013.5 |
| 20260905134546 | 26 | 306 | 6.4 | 16.1 | 0.00 | 0.03 | 0.00 | 56 | 1013.7 |
| 20260905133042 | 25 | 300 | 12.9 | 19.3 | 0.00 | 0.03 | 0.00 | 54 | 1013.9 |
| 20260905131556 | 24 | 296 | 8.0 | 12.9 | 0.00 | 0.03 | 0.00 | 53 | 1013.9 |
| 20260905130046 | 23 | 312 | 9.7 | 12.9 | 0.00 | 0.03 | 0.00 | 51 | 1013.7 |
| 20260905124539 | 23 | 302 | 9.7 | 12.9 | 0.00 | 0.03 | 0.00 | 48 | 1013.6 |
| 20260905123037 | 22 | 302 | 6.4 | 8.0 | 0.00 | 0.03 | 0.00 | 42 | 1013.7 |
| 20260905121539 | 22 | 312 | 3.2 | 6.4 | 0.00 | 0.03 | 0.00 | 33 | 1013.6 |
| 20260905120041 | 22 | 321 | 3.2 | 6.4 | 0.00 | 0.03 | 0.00 | 31 | 1013.5 |
| 20260905114536 | 21 | 320 | 3.2 | 8.0 | 0.00 | 0.03 | 0.00 | 31 | 1013.3 |
| 20260905113036 | 21 | 318 | 3.2 | 6.4 | 0.00 | 0.03 | 0.00 | 32 | 1013.0 |
| 20260905111554 | 21 | 318 | 3.2 | 6.4 | 0.00 | 0.03 | 0.00 | 32 | 1012.9 |
| 20260905110035 | 21 | 311 | 4.8 | 8.0 | 0.00 | 0.03 | 0.00 | 32 | 1012.7 |
| 20260905104532 | 21 | 305 | 4.8 | 6.4 | 0.00 | 0.03 | 0.00 | 32 | 1012.7 |
| 20260905103030 | 21 | 303 | 3.2 | 6.4 | 0.00 | 0.03 | 0.00 | 44 | 1012.6 |
| 20260905101528 | 21 | 304 | 4.8 | 6.4 | 0.00 | 0.03 | 0.00 | 44 | 1012.5 |
| 20260905100026 | 22 | 305 | 3.2 | 6.4 | 0.00 | 0.03 | 0.00 | 44 | 1012.4 |
| 20260905094526 | 22 | 305 | 4.8 | 6.4 | 0.00 | 0.03 | 0.00 | 44 | 1012.4 |